createdAt,value
2022-10-22T00:00:52.667Z,96260.22
2022-10-22T00:03:18.992Z,96261.78
2022-10-22T00:05:45.321Z,96268.25
2022-10-22T00:08:11.664Z,96260.53
2022-10-22T00:10:37.991Z,96266.66
2022-10-22T00:13:04.316Z,96269.31
2022-10-22T00:15:30.660Z,96274.66
2022-10-22T00:17:57.000Z,96266.66
2022-10-22T00:20:23.327Z,96271.53
2022-10-22T00:22:49.661Z,96265.06
2022-10-22T00:25:16.004Z,96280.00
2022-10-22T00:27:42.738Z,96285.34
2022-10-22T00:30:09.265Z,96276.88
2022-10-22T00:32:35.599Z,96278.44
2022-10-22T00:35:01.923Z,96285.34
2022-10-22T00:37:28.247Z,96279.22
2022-10-22T00:39:54.576Z,96245.59
2022-10-22T00:42:21.026Z,96267.75
2022-10-22T00:44:47.361Z,96283.78
2022-10-22T00:47:13.847Z,96286.94
2022-10-22T00:49:40.178Z,96296.00
2022-10-22T00:52:06.518Z,96290.69
2022-10-22T00:54:32.845Z,96294.44
2022-10-22T00:56:59.175Z,96311.56
2022-10-22T00:59:25.498Z,96328.06
2022-10-22T01:01:51.817Z,96328.06
2022-10-22T01:04:18.153Z,96317.69
2022-10-22T01:06:44.499Z,96310.47
2022-10-22T01:09:10.866Z,96307.81
2022-10-22T01:11:37.250Z,96315.00
2022-10-22T01:14:03.738Z,96315.81
2022-10-22T01:16:30.078Z,96310.47
2022-10-22T01:18:56.403Z,96307.81
2022-10-22T01:21:22.742Z,96309.69
2022-10-22T01:23:49.083Z,96311.56
2022-10-22T01:26:15.494Z,96308.91
2022-10-22T01:28:41.871Z,96305.13
2022-10-22T01:31:08.217Z,96314.72
2022-10-22T01:33:35.020Z,96300.28
2022-10-22T01:36:01.374Z,96290.69
2022-10-22T01:38:27.702Z,96294.44
2022-10-22T01:40:54.029Z,96292.28
2022-10-22T01:43:20.351Z,96303.56
2022-10-22T01:45:46.672Z,96315.81
2022-10-22T01:48:13.005Z,96310.47
2022-10-22T01:50:39.350Z,96304.34
2022-10-22T01:53:05.689Z,96294.44
2022-10-22T01:55:32.031Z,96286.31
2022-10-22T01:57:58.377Z,96280.00
2022-10-22T02:00:24.817Z,96276.88
2022-10-22T02:02:51.184Z,96271.53
2022-10-22T02:05:17.524Z,96272.59
2022-10-22T02:07:43.989Z,96292.09
2022-10-22T02:10:10.332Z,96295.56
2022-10-22T02:12:36.670Z,96291.28
2022-10-22T02:15:02.991Z,96296.63
2022-10-22T02:17:29.330Z,96305.75
2022-10-22T02:19:55.670Z,96315.31
2022-10-22T02:22:21.997Z,96324.44
2022-10-22T02:24:48.330Z,96331.84
2022-10-22T02:27:14.659Z,96327.09
2022-10-22T02:29:40.997Z,96336.38
2022-10-22T02:32:07.335Z,96337.47
2022-10-22T02:34:33.686Z,96335.91
2022-10-22T02:37:00.003Z,96329.78
2022-10-22T02:39:26.332Z,96323.34
2022-10-22T02:41:52.661Z,96328.66
2022-10-22T02:44:19.002Z,96334.00
2022-10-22T02:46:45.339Z,96335.13
2022-10-22T02:49:11.682Z,96332.44
2022-10-22T02:51:38.020Z,96332.44
2022-10-22T02:54:04.359Z,96332.44
2022-10-22T02:56:30.696Z,96337.78
2022-10-22T02:58:57.036Z,96334.00
2022-10-22T03:01:23.423Z,96331.34
2022-10-22T03:03:49.793Z,96328.66
2022-10-22T03:06:16.245Z,96327.91
2022-10-22T03:08:42.712Z,96327.09
2022-10-22T03:11:09.074Z,96327.09
2022-10-22T03:13:35.403Z,96332.44
2022-10-22T03:16:01.729Z,96339.34
2022-10-22T03:18:28.066Z,96343.94
2022-10-22T03:20:54.399Z,96338.59
2022-10-22T03:23:21.200Z,96348.47
2022-10-22T03:25:47.571Z,96330.88
2022-10-22T03:28:13.913Z,96338.59
2022-10-22T03:30:40.260Z,96343.13
2022-10-22T03:33:06.592Z,96342.31
2022-10-22T03:35:32.930Z,96359.16
2022-10-22T03:37:59.269Z,96354.91
2022-10-22T03:40:25.616Z,96354.13
2022-10-22T03:42:51.957Z,96352.25
2022-10-22T03:45:18.289Z,96353.00
2022-10-22T03:47:44.676Z,96361.81
2022-10-22T03:50:11.011Z,96357.59
2022-10-22T03:52:37.341Z,96364.50
2022-10-22T03:55:03.672Z,96348.81
2022-10-22T03:57:30.006Z,96356.19
2022-10-22T03:59:56.339Z,96356.47
2022-10-22T04:02:22.683Z,96361.31
2022-10-22T04:04:49.025Z,96368.25
2022-10-22T04:07:15.347Z,96373.59
2022-10-22T04:09:41.690Z,96374.69
2022-10-22T04:12:08.030Z,96377.03
2022-10-22T04:14:34.383Z,96370.94
2022-10-22T04:17:00.730Z,96376.28
2022-10-22T04:19:27.066Z,96368.25
2022-10-22T04:21:53.411Z,96369.34
2022-10-22T04:24:19.747Z,96372.00
2022-10-22T04:26:46.069Z,96382.69
2022-10-22T04:29:15.909Z,96384.28
2022-10-22T04:31:42.771Z,96382.69
2022-10-22T04:34:09.102Z,96382.69
2022-10-22T04:36:35.425Z,96386.47
2022-10-22T04:39:01.749Z,96391.00
2022-10-22T04:41:28.092Z,96391.81
2022-10-22T04:43:54.424Z,96388.03
2022-10-22T04:46:20.869Z,96387.56
2022-10-22T04:48:47.199Z,96394.97
2022-10-22T04:51:13.539Z,96393.38
2022-10-22T04:53:39.938Z,96397.13
2022-10-22T04:56:06.269Z,96397.94
2022-10-22T04:58:32.594Z,96405.16
2022-10-22T05:00:58.944Z,96405.16
2022-10-22T05:03:25.336Z,96407.81
2022-10-22T05:05:51.665Z,96403.59
2022-10-22T05:08:17.992Z,96407.03
2022-10-22T05:10:44.337Z,96402.47
2022-10-22T05:13:10.682Z,96402.97
2022-10-22T05:15:37.014Z,96407.22
2022-10-22T05:18:03.336Z,96411.75
2022-10-22T05:20:29.660Z,96414.72
2022-10-22T05:22:55.981Z,96407.22
2022-10-22T05:25:22.304Z,96407.81
2022-10-22T05:27:48.619Z,96409.38
2022-10-22T05:30:14.953Z,96413.16
2022-10-22T05:32:41.283Z,96419.59
2022-10-22T05:35:07.620Z,96412.38
2022-10-22T05:37:33.943Z,96418.50
2022-10-22T05:40:12.470Z,96420.06
2022-10-22T05:42:46.597Z,96429.19
2022-10-22T05:45:12.925Z,96432.66
2022-10-22T05:47:39.250Z,96429.97
2022-10-22T05:50:05.634Z,96434.53
2022-10-22T05:52:31.959Z,96435.63
2022-10-22T05:54:58.285Z,96438.28
2022-10-22T05:57:24.613Z,96451.03
2022-10-22T05:59:50.940Z,96452.91
2022-10-22T06:02:17.301Z,96452.72
2022-10-22T06:04:43.656Z,96458.06
2022-10-22T06:07:09.992Z,96459.66
2022-10-22T06:12:07.543Z,96462.31
2022-10-22T06:14:33.876Z,96465.00
2022-10-22T06:17:00.194Z,96465.00
2022-10-22T06:19:26.527Z,96471.91
2022-10-22T06:21:52.854Z,96470.34
2022-10-22T06:24:19.178Z,96469.53
2022-10-22T06:26:45.553Z,96471.91
2022-10-22T06:29:11.888Z,96491.69
2022-10-22T06:31:38.214Z,96486.34
2022-10-22T06:34:04.549Z,96497.50
2022-10-22T06:36:30.941Z,96485.75
2022-10-22T06:38:57.338Z,96494.22
2022-10-22T06:41:25.785Z,96495.22
2022-10-22T06:43:55.892Z,96501.16
2022-10-22T06:46:22.217Z,96489.50
2022-10-22T06:48:48.548Z,96505.53
2022-10-22T06:51:14.881Z,96508.69
2022-10-22T06:53:41.209Z,96514.03
2022-10-22T06:56:07.540Z,96514.03
2022-10-22T06:58:33.879Z,96520.94
2022-10-22T07:01:00.315Z,96523.59
2022-10-22T07:03:26.724Z,96524.09
2022-10-22T07:05:53.052Z,96531.81
2022-10-22T07:08:19.384Z,96532.69
2022-10-22T07:10:45.715Z,96532.97
2022-10-22T07:13:12.053Z,96524.47
2022-10-22T07:15:38.384Z,96527.63
2022-10-22T07:18:04.729Z,96514.88
2022-10-22T07:20:31.074Z,96514.38
2022-10-22T07:22:57.401Z,96516.59
2022-10-22T07:25:23.737Z,96515.38
2022-10-22T07:27:50.062Z,96517.66
2022-10-22T07:30:16.389Z,96527.47
2022-10-22T07:32:42.716Z,96524.94
2022-10-22T07:35:09.062Z,96514.97
2022-10-22T07:37:35.405Z,96517.50
2022-10-22T07:40:03.839Z,96531.06
2022-10-22T07:45:01.873Z,96533.84
2022-10-22T07:47:28.198Z,96534.75
2022-10-22T07:49:54.527Z,96536.41
2022-10-22T07:52:20.865Z,96534.75
2022-10-22T07:54:47.202Z,96543.34
2022-10-22T07:57:13.528Z,96542.56
2022-10-22T07:59:39.863Z,96542.72
2022-10-22T08:02:06.206Z,96541.16
2022-10-22T08:04:32.546Z,96546.88
2022-10-22T08:06:58.876Z,96544.19
2022-10-22T08:09:25.250Z,96545.78
2022-10-22T08:11:51.581Z,96540.97
2022-10-22T08:14:17.910Z,96546.31
2022-10-22T08:16:44.227Z,96552.81
2022-10-22T08:19:10.555Z,96556.19
2022-10-22T08:21:36.900Z,96554.00
2022-10-22T08:24:03.269Z,96559.66
2022-10-22T08:26:29.644Z,96560.91
2022-10-22T08:28:56.057Z,96556.47
2022-10-22T08:31:22.408Z,96559.16
2022-10-22T08:33:48.748Z,96561.28
2022-10-22T08:36:15.071Z,96552.41
2022-10-22T08:38:41.402Z,96561.72
2022-10-22T08:41:07.823Z,96564.78
2022-10-22T08:43:34.233Z,96563.00
2022-10-22T08:46:00.551Z,96561.31
2022-10-22T08:48:26.877Z,96559.75
2022-10-22T08:50:53.194Z,96560.72
2022-10-22T08:53:19.516Z,96563.88
2022-10-22T08:55:45.833Z,96561.22
2022-10-22T08:58:12.151Z,96569.03
2022-10-22T09:00:38.483Z,96565.84
2022-10-22T09:03:04.805Z,96559.16
2022-10-22T09:05:31.131Z,96566.06
2022-10-22T09:07:57.451Z,96565.28
2022-10-22T09:10:23.773Z,96564.50
2022-10-22T09:12:50.101Z,96566.06
2022-10-22T09:15:16.430Z,96558.34
2022-10-22T09:17:43.054Z,96561.72
2022-10-22T09:20:09.523Z,96564.84
2022-10-22T09:22:36.257Z,96561.72
2022-10-22T09:25:02.602Z,96558.75
2022-10-22T09:27:28.939Z,96562.69
2022-10-22T09:29:55.264Z,96563.88
2022-10-22T09:32:21.635Z,96562.09
2022-10-22T09:34:47.956Z,96563.66
2022-10-22T09:37:14.585Z,96562.41
2022-10-22T09:39:40.903Z,96569.00
2022-10-22T09:42:07.241Z,96571.56
2022-10-22T09:44:33.564Z,96563.56
2022-10-22T09:46:59.901Z,96557.13
2022-10-22T09:49:26.224Z,96561.50
2022-10-22T09:51:52.569Z,96561.50
2022-10-22T09:54:18.902Z,96563.06
2022-10-22T09:56:45.229Z,96560.00
2022-10-22T09:59:11.557Z,96563.25
2022-10-22T10:01:37.879Z,96554.16
2022-10-22T10:04:08.413Z,96561.25
2022-10-22T10:06:35.869Z,96573.66
2022-10-22T10:09:02.263Z,96567.81
2022-10-22T10:11:29.442Z,96583.22
2022-10-22T10:13:55.966Z,96570.59
2022-10-22T10:16:22.308Z,96569.41
2022-10-22T10:18:48.657Z,96562.66
2022-10-22T10:23:41.215Z,96568.81
2022-10-22T10:26:07.579Z,96558.13
2022-10-22T10:28:33.910Z,96572.38
2022-10-22T10:31:00.238Z,96555.91
2022-10-22T10:33:26.652Z,96553.53
2022-10-22T10:35:52.989Z,96556.53
2022-10-22T10:38:19.452Z,96550.09
2022-10-22T10:40:45.800Z,96558.59
2022-10-22T10:43:12.137Z,96565.03
2022-10-22T10:45:38.478Z,96553.44
2022-10-22T10:48:04.808Z,96559.59
2022-10-22T10:50:31.137Z,96557.53
2022-10-22T10:52:57.460Z,96546.22
2022-10-22T10:55:23.793Z,96552.53
2022-10-22T10:57:50.123Z,96559.09
2022-10-22T11:00:16.445Z,96553.16
2022-10-22T11:02:42.790Z,96551.97
2022-10-22T11:05:09.181Z,96560.66
2022-10-22T11:07:35.510Z,96547.81
2022-10-22T11:10:01.838Z,96551.56
2022-10-22T11:12:28.172Z,96543.47
2022-10-22T11:14:54.499Z,96549.00
2022-10-22T11:17:20.817Z,96539.19
2022-10-22T11:19:51.671Z,96532.00
2022-10-22T11:22:19.380Z,96527.31
2022-10-22T11:24:46.948Z,96526.53
2022-10-22T11:27:13.273Z,96524.94
2022-10-22T11:29:39.590Z,96525.63
2022-10-22T11:32:05.909Z,96522.88
2022-10-22T11:34:34.309Z,96515.84
2022-10-22T11:37:01.014Z,96519.31
2022-10-22T11:39:27.339Z,96515.16
2022-10-22T11:41:53.656Z,96509.88
2022-10-22T11:44:19.988Z,96518.81
2022-10-22T11:46:46.311Z,96518.91
2022-10-22T11:49:12.634Z,96520.50
2022-10-22T11:51:38.959Z,96517.31
2022-10-22T11:54:05.288Z,96521.69
2022-10-22T11:56:31.600Z,96520.88
2022-10-22T11:58:57.912Z,96516.44
2022-10-22T12:01:24.320Z,96514.94
2022-10-22T12:03:50.684Z,96513.56
2022-10-22T12:06:17.014Z,96506.63
2022-10-22T12:08:43.419Z,96499.94
2022-10-22T12:11:09.771Z,96502.31
2022-10-22T12:13:36.101Z,96493.78
2022-10-22T12:16:02.438Z,96499.13
2022-10-22T12:18:28.767Z,96492.59
2022-10-22T12:20:55.106Z,96493.69
2022-10-22T12:23:21.450Z,96489.03
2022-10-22T12:25:47.782Z,96485.25
2022-10-22T12:28:14.119Z,96493.41
2022-10-22T12:30:40.436Z,96477.75
2022-10-22T12:33:06.778Z,96474.00
2022-10-22T12:35:33.101Z,96463.44
2022-10-22T12:37:59.428Z,96471.03
2022-10-22T12:40:25.748Z,96471.44
2022-10-22T12:42:52.067Z,96466.25
2022-10-22T12:45:18.388Z,96467.28
2022-10-22T12:47:44.709Z,96468.66
2022-10-22T12:50:11.033Z,96469.84
2022-10-22T12:52:37.358Z,96472.31
2022-10-22T12:55:03.694Z,96467.44
2022-10-22T12:57:30.026Z,96464.91
2022-10-22T12:59:56.388Z,96455.31
2022-10-22T13:02:22.748Z,96465.28
2022-10-22T13:04:49.072Z,96454.00
2022-10-22T13:07:18.464Z,96444.13
2022-10-22T13:09:48.242Z,96446.06
2022-10-22T13:12:14.566Z,96457.13
2022-10-22T13:14:40.886Z,96450.66
2022-10-22T13:17:07.211Z,96448.28
2022-10-22T13:19:34.666Z,96447.28
2022-10-22T13:22:01.462Z,96450.19
2022-10-22T13:24:27.848Z,96455.53
2022-10-22T13:26:54.164Z,96453.78
2022-10-22T13:29:20.501Z,96446.06
2022-10-22T13:31:46.849Z,96445.34
2022-10-22T13:34:16.420Z,96445.31
2022-10-22T13:36:43.493Z,96447.47
2022-10-22T13:39:09.809Z,96439.16
2022-10-22T13:41:36.183Z,96442.94
2022-10-22T13:44:02.584Z,96446.69
2022-10-22T13:46:28.937Z,96443.53
2022-10-22T13:48:55.274Z,96441.34
2022-10-22T13:51:21.611Z,96443.91
2022-10-22T13:53:47.932Z,96453.63
2022-10-22T13:56:14.257Z,96454.16
2022-10-22T13:58:40.574Z,96444.84
2022-10-22T14:01:07.199Z,96435.28
2022-10-22T14:03:33.541Z,96438.56
2022-10-22T14:05:59.869Z,96429.28
2022-10-22T14:08:26.193Z,96425.31
2022-10-22T14:10:52.562Z,96429.09
2022-10-22T14:13:18.966Z,96417.78
2022-10-22T14:15:45.310Z,96420.97
2022-10-22T14:18:11.634Z,96418.28
2022-10-22T14:20:37.952Z,96416.22
2022-10-22T14:23:04.296Z,96417.78
2022-10-22T14:25:30.640Z,96407.72
2022-10-22T14:27:56.968Z,96411.66
2022-10-22T14:30:23.298Z,96406.50
2022-10-22T14:32:49.622Z,96401.75
2022-10-22T14:35:15.935Z,96409.06
2022-10-22T14:37:42.265Z,96409.06
2022-10-22T14:40:08.591Z,96409.81
2022-10-22T14:42:34.907Z,96405.88
2022-10-22T14:45:01.239Z,96402.09
2022-10-22T14:47:27.564Z,96404.94
2022-10-22T14:49:53.885Z,96398.97
2022-10-22T14:52:20.226Z,96398.97
2022-10-22T14:54:46.562Z,96404.56
2022-10-22T14:57:12.893Z,96396.41
2022-10-22T14:59:39.213Z,96396.13
2022-10-22T15:02:05.542Z,96401.16
2022-10-22T15:04:31.857Z,96402.72
2022-10-22T15:06:58.186Z,96394.72
2022-10-22T15:09:24.515Z,96394.84
2022-10-22T15:11:50.846Z,96396.81
2022-10-22T15:14:17.178Z,96395.19
2022-10-22T15:16:43.513Z,96397.06
2022-10-22T15:19:09.855Z,96400.19
2022-10-22T15:21:36.210Z,96399.44
2022-10-22T15:24:02.551Z,96394.09
2022-10-22T15:26:28.875Z,96399.31
2022-10-22T15:28:55.269Z,96396.03
2022-10-22T15:31:21.590Z,96390.97
2022-10-22T15:33:47.917Z,96397.16
2022-10-22T15:36:14.257Z,96401.66
2022-10-22T15:38:40.584Z,96393.63
2022-10-22T15:41:06.912Z,96388.09
2022-10-22T15:43:33.242Z,96397.22
2022-10-22T15:45:59.590Z,96396.34
2022-10-22T15:48:25.995Z,96390.81
2022-10-22T15:50:52.332Z,96389.53
2022-10-22T15:53:18.660Z,96394.41
2022-10-22T15:55:45.000Z,96386.38
2022-10-22T15:58:11.326Z,96386.88
2022-10-22T16:00:37.757Z,96377.75
2022-10-22T16:03:04.151Z,96375.22
2022-10-22T16:05:30.480Z,96381.66
2022-10-22T16:07:56.814Z,96376.81
2022-10-22T16:10:23.141Z,96374.75
2022-10-22T16:12:49.462Z,96382.94
2022-10-22T16:15:15.784Z,96377.75
2022-10-22T16:17:42.110Z,96379.34
2022-10-22T16:20:08.528Z,96377.91
2022-10-22T16:22:34.942Z,96375.22
2022-10-22T16:25:01.301Z,96377.41
2022-10-22T16:27:27.625Z,96380.84
2022-10-22T16:29:53.951Z,96392.28
2022-10-22T16:32:20.273Z,96389.72
2022-10-22T16:34:46.611Z,96380.72
2022-10-22T16:37:12.936Z,96384.50
2022-10-22T16:39:39.274Z,96389.84
2022-10-22T16:42:05.613Z,96388.28
2022-10-22T16:44:31.948Z,96388.28
2022-10-22T16:46:58.288Z,96385.13
2022-10-22T16:49:24.632Z,96382.34
2022-10-22T16:51:50.974Z,96383.91
2022-10-22T16:54:17.317Z,96384.88
2022-10-22T16:56:43.641Z,96392.69
2022-10-22T16:59:09.975Z,96401.00
2022-10-22T17:01:40.655Z,96406.34
2022-10-22T17:04:07.678Z,96404.56
2022-10-22T17:06:34.013Z,96401.75
2022-10-22T17:09:00.409Z,96408.44
2022-10-22T17:11:26.814Z,96403.75
2022-10-22T17:13:53.156Z,96409.16
2022-10-22T17:16:19.480Z,96405.38
2022-10-22T17:21:17.047Z,96421.13
2022-10-22T17:23:43.371Z,96418.50
2022-10-22T17:26:29.841Z,96424.69
2022-10-22T17:28:56.358Z,96420.78
2022-10-22T17:31:22.709Z,96425.22
2022-10-22T17:33:49.057Z,96425.72
2022-10-22T17:36:15.388Z,96418.78
2022-10-22T17:38:41.732Z,96422.72
2022-10-22T17:41:10.342Z,96422.72
2022-10-22T17:43:38.886Z,96413.94
2022-10-22T17:46:05.515Z,96423.06
2022-10-22T17:48:32.220Z,96429.03
2022-10-22T17:50:59.392Z,96430.59
2022-10-22T17:53:25.780Z,96427.97
2022-10-22T17:55:52.104Z,96426.56
2022-10-22T17:58:18.432Z,96425.00
2022-10-22T18:00:44.835Z,96424.38
2022-10-22T18:03:11.190Z,96431.28
2022-10-22T18:05:37.534Z,96427.06
2022-10-22T18:08:07.010Z,96433.47
2022-10-22T18:10:34.172Z,96430.81
2022-10-22T18:13:00.505Z,96429.25
2022-10-22T18:15:26.818Z,96422.78
2022-10-22T18:17:53.142Z,96427.91
2022-10-22T18:20:19.463Z,96433.44
2022-10-22T18:22:45.786Z,96434.56
2022-10-22T18:25:12.107Z,96429.66
2022-10-22T18:27:38.527Z,96435.41
2022-10-22T18:30:04.967Z,96435.81
2022-10-22T18:32:31.292Z,96436.72
2022-10-22T18:34:57.615Z,96439.97
2022-10-22T18:37:23.931Z,96430.69
2022-10-22T18:39:50.252Z,96444.34
2022-10-22T18:42:16.698Z,96445.28
2022-10-22T18:44:43.020Z,96448.75
2022-10-22T18:47:09.348Z,96438.81
2022-10-22T18:49:35.928Z,96444.78
2022-10-22T18:52:02.256Z,96444.78
2022-10-22T18:54:28.590Z,96453.91
2022-10-22T18:56:57.091Z,96448.56
2022-10-22T18:59:24.451Z,96449.69
2022-10-22T19:01:50.785Z,96450.75
2022-10-22T19:04:17.119Z,96449.97
2022-10-22T19:06:45.813Z,96454.53
2022-10-22T19:09:12.385Z,96456.09
2022-10-22T19:11:38.749Z,96451.56
2022-10-22T19:14:05.086Z,96455.63
2022-10-22T19:16:31.428Z,96451.84
2022-10-22T19:18:57.766Z,96451.84
2022-10-22T19:21:24.080Z,96454.53
2022-10-22T19:23:50.421Z,96447.63
2022-10-22T19:26:16.782Z,96452.97
2022-10-22T19:28:43.112Z,96458.31
2022-10-22T19:31:09.450Z,96461.75
2022-10-22T19:33:35.870Z,96451.38
2022-10-22T19:36:02.206Z,96458.31
2022-10-22T19:38:28.622Z,96453.59
2022-10-22T19:40:54.949Z,96451.69
2022-10-22T19:43:21.277Z,96448.22
2022-10-22T19:45:47.653Z,96445.88
2022-10-22T19:48:14.001Z,96433.28
2022-10-22T19:50:40.336Z,96430.59
2022-10-22T19:53:06.674Z,96438.16
2022-10-22T19:55:33.001Z,96439.72
2022-10-22T19:57:59.322Z,96442.28
2022-10-22T20:00:25.744Z,96441.28
2022-10-22T20:02:52.173Z,96442.69
2022-10-22T20:05:18.554Z,96438.91
2022-10-22T20:07:44.957Z,96436.56
2022-10-22T20:10:11.317Z,96441.91
2022-10-22T20:12:37.640Z,96443.50
2022-10-22T20:15:03.978Z,96445.69
2022-10-22T20:17:30.302Z,96447.88
2022-10-22T20:19:56.628Z,96449.47
2022-10-22T20:22:22.970Z,96446.47
2022-10-22T20:24:49.301Z,96451.81
2022-10-22T20:27:15.623Z,96454.81
2022-10-22T20:29:41.957Z,96451.03
2022-10-22T20:32:08.910Z,96453.22
2022-10-22T20:34:35.407Z,96450.22
2022-10-22T20:37:01.737Z,96458.56
2022-10-22T20:39:28.069Z,96453.22
2022-10-22T20:41:54.409Z,96450.91
2022-10-22T20:44:20.745Z,96446.03
2022-10-22T20:46:47.193Z,96448.84
2022-10-22T20:49:13.589Z,96450.41
2022-10-22T20:51:39.934Z,96450.41
2022-10-22T20:54:06.265Z,96441.19
2022-10-22T20:56:32.602Z,96445.53
2022-10-22T20:58:59.086Z,96444.53
2022-10-22T21:01:25.454Z,96465.09
2022-10-22T21:03:51.803Z,96464.63
2022-10-22T21:06:18.124Z,96473.59
2022-10-22T21:08:44.486Z,96464.78
2022-10-22T21:11:10.848Z,96476.41
2022-10-22T21:13:37.175Z,96471.69
2022-10-22T21:16:03.505Z,96470.38
2022-10-22T21:18:29.833Z,96471.81
2022-10-22T21:20:56.163Z,96468.63
2022-10-22T21:23:22.501Z,96468.63
2022-10-22T21:25:48.838Z,96467.69
2022-10-22T21:28:15.173Z,96466.88
2022-10-22T21:30:41.502Z,96460.75
2022-10-22T21:33:07.833Z,96466.72
2022-10-22T21:35:34.171Z,96460.28
2022-10-22T21:38:00.520Z,96462.44
2022-10-22T21:40:26.857Z,96465.13
2022-10-22T21:42:53.178Z,96465.75
2022-10-22T21:45:22.334Z,96469.69
2022-10-22T21:47:48.913Z,96476.91
2022-10-22T21:50:15.240Z,96471.09
2022-10-22T21:52:41.567Z,96461.19
2022-10-22T21:55:07.909Z,96471.09
2022-10-22T21:57:34.249Z,96469.81
2022-10-22T22:00:00.578Z,96464.47
2022-10-22T22:02:26.910Z,96473.28
2022-10-22T22:04:53.237Z,96461.00
2022-10-22T22:07:19.574Z,96471.69
2022-10-22T22:09:45.909Z,96469.81
2022-10-22T22:12:12.242Z,96468.25
2022-10-22T22:14:38.568Z,96461.00
2022-10-22T22:17:04.896Z,96463.97
2022-10-22T22:19:31.225Z,96478.63
2022-10-22T22:21:57.577Z,96471.09
2022-10-22T22:24:23.917Z,96475.03
2022-10-22T22:26:50.248Z,96469.09
2022-10-22T22:29:16.577Z,96473.03
2022-10-22T22:31:42.920Z,96460.75
2022-10-22T22:34:09.245Z,96468.28
2022-10-22T22:36:35.585Z,96462.94
2022-10-22T22:39:01.913Z,96462.00
2022-10-22T22:41:28.227Z,96458.81
2022-10-22T22:46:21.770Z,96461.00
2022-10-22T22:48:48.083Z,96452.97
2022-10-22T22:51:14.421Z,96450.31
2022-10-22T22:53:40.759Z,96456.47
2022-10-22T22:56:07.084Z,96453.47
2022-10-22T22:58:33.422Z,96453.47
2022-10-22T23:00:59.801Z,96455.66
2022-10-22T23:03:26.159Z,96455.66
2022-10-22T23:05:52.484Z,96456.34
2022-10-22T23:08:18.821Z,96454.94
2022-10-22T23:10:45.169Z,96453.19
2022-10-22T23:13:11.501Z,96447.63
2022-10-22T23:15:37.830Z,96441.22
2022-10-22T23:18:04.167Z,96444.34
2022-10-22T23:20:30.476Z,96445.94
2022-10-22T23:22:56.805Z,96444.34
2022-10-22T23:25:23.143Z,96450.50
2022-10-22T23:27:49.477Z,96448.13
2022-10-22T23:30:15.808Z,96437.44
2022-10-22T23:32:42.139Z,96441.22
2022-10-22T23:35:08.474Z,96433.50
2022-10-22T23:37:34.806Z,96434.28
2022-10-22T23:40:01.150Z,96443.09
2022-10-22T23:42:27.526Z,96440.22
2022-10-22T23:44:53.917Z,96441.66
2022-10-22T23:47:20.247Z,96438.66
2022-10-22T23:49:46.565Z,96431.75
2022-10-22T23:52:12.889Z,96430.97
2022-10-22T23:54:39.211Z,96438.16
2022-10-22T23:57:05.539Z,96435.50
2022-10-22T23:59:31.863Z,96436.13
